CYED/YED METAR and TAF weather

Enter ICAO airport designator
Station Type Date Time Source
CYED METAR 2020/09/18 20:00 UTC NOAA

CYED 182000Z AUTO 18005KT 8SM CLR 19/10 A2989 RMK SLP128


Station Type Date Time Source
CYED Decoded METAR 2020/09/18 20:00 UTC NOAA

Edmonton Namao Alta., Canada (CYED) 53-40N 113-28W 688M
Sep 18, 2020 - 04:00 PM EDT / 2020.09.18 2000 UTC
Wind: from the S (180 degrees) at 6 MPH (5 KT):0
Visibility: 8 mile(s):0
Sky conditions: clear
Temperature: 66 F (19 C)
Dew Point: 50 F (10 C)
Relative Humidity: 55%
Pressure (altimeter): 29.89 in. Hg (1012 hPa)
ob: CYED 182000Z AUTO 18005KT 8SM CLR 19/10 A2989 RMK SLP128
cycle: 20

Station Type Date Time Source
CYED TAF 2020/09/18 18:33 UTC NOAA

TAF CYED 181730Z 1818/1906 21005KT P6SM FEW100 SCT250
FM182200 15010KT P6SM SCT250 PROB30 1822/1906 5SM FU
RMK FCST BASED ON AUTO OBS. NXT FCST BY 190000Z

Example: see airport list